Aérodrome :
LOGIN :

S'inscrire | Disclaimer

   EN    FR    IT 

 










Légende :    VFR   VFR Marginal   IFR   IFR Intensif   IFR Très Intensif
Visi : 
Plafond : 
>= 8 km
>= 3000ft
5 à 8 km
1000 à 3000 ft
1500m à 5 km
500 à 1000 ft
800 à 1500m
200 à 500 ft
< 800m
< 200 ft
Symboles :   Orages  Brouillard  Fortes neiges  Fortes précipitations  Vent > 20 kt
SIGMETs :   Divers  Orages  Givrage  Turbulence  Onde Orograph.  Cendres Volcan.






- Altitude de l'aérodrome : 177 ft
- Code IATA : BRI


LIBD - Palese Macchie Bari

DERNIER METAR :
  • 232020Z 17006KT CAVOK 15/07 Q1008

METARs EXPIRÉS :
  • 231950Z 16007KT CAVOK 15/08 Q1008
  • 231920Z 17007KT CAVOK 15/08 Q1008
  • 231850Z 16006KT CAVOK 15/07 Q1008
  • 231820Z 16007KT CAVOK 15/07 Q1009
  • 231750Z 17007KT CAVOK 14/08 Q1008
  • 231720Z 17006KT CAVOK 14/08 Q1008
  • 231650Z 17005KT CAVOK 15/08 Q1008
  • 231620Z 16006KT 130V200 9999 FEW045 15/07 Q1008
  • 231550Z 14010KT 9999 FEW040 15/06 Q1008

TAF TAF LIBD
Valide du 23 à 18h jusqu'au 24 à 18h UTC


231700Z 2318/2418 17010KT 9999 SCT040
TEMPO 2402/2418 RA



MET'MAP, la Météo Aéronautique d'un coup d'oeil ! - Copyright ORBIFLY Décembre 2007 - Disclaimer

ORBIFLY MET'MAP TEAM :

Programmation & Développement : Alexandra Zaïnal
Sur une idée originale de : Baudouin d'Aumeries
Soutien technique & logistique : Manuel Goepfert
Assistance : Marc-Olivier Méhu




SOURCES & CREDITS :

   NOAA